Time;durP1;ratioP1;P1;durP2;ratioP2;P2;SDS_P1;SDS_P2;PMS_P1;PMS_P2;Temp;Humidity;BMP_temperature;BMP_pressure;BME280_temperature;BME280_humidity;BME280_pressure;Samples;Min_cycle;Max_cycle;Signal;HPM_P1;HPM_P2
2024/02/05 00:01:24;;;;;;;3.42;2.00;;;;;;;22.21;38.03;101452.50;4983927;28;20589;-69
2024/02/05 00:03:50;;;;;;;3.53;2.10;;;;;;;22.23;37.84;101463.75;4983524;28;20038;-69
2024/02/05 00:06:15;;;;;;;2.45;2.05;;;;;;;22.16;38.18;101446.09;4984036;28;20053;-69
2024/02/05 00:08:41;;;;;;;2.63;1.70;;;;;;;22.12;38.16;101463.38;4984392;28;20034;-69
2024/02/05 00:11:07;;;;;;;4.30;2.20;;;;;;;22.19;38.03;101454.50;5000646;28;20439;-69
2024/02/05 00:13:33;;;;;;;1.90;1.80;;;;;;;22.14;38.19;101464.84;5001081;28;20042;-69
2024/02/05 00:15:58;;;;;;;2.70;1.90;;;;;;;22.16;37.87;101459.34;4997807;28;20608;-69
2024/02/05 00:18:24;;;;;;;2.65;1.73;;;;;;;22.08;38.11;101449.63;4986440;28;20146;-69
2024/02/05 00:20:50;;;;;;;3.88;2.13;;;;;;;22.08;37.93;101449.63;4987952;28;20034;-69
2024/02/05 00:23:17;;;;;;;3.58;1.92;;;;;;;22.06;38.32;101456.94;4984533;28;20042;-69
2024/02/05 00:25:42;;;;;;;3.75;2.47;;;;;;;22.08;38.17;101446.16;4983537;28;20052;-69
2024/02/05 00:28:08;;;;;;;2.70;1.75;;;;;;;22.09;38.38;101446.00;4986609;28;20042;-69
2024/02/05 00:30:34;;;;;;;3.00;1.90;;;;;;;22.07;38.05;101457.75;4984962;28;20045;-69
2024/02/05 00:33:00;;;;;;;2.40;2.00;;;;;;;22.10;38.25;101465.38;4982151;28;20450;-69
2024/02/05 00:35:26;;;;;;;2.33;2.00;;;;;;;22.06;38.17;101442.84;4988547;28;20534;-69
2024/02/05 00:37:51;;;;;;;3.17;2.08;;;;;;;22.07;38.10;101437.38;4986281;28;20054;-69
2024/02/05 00:40:17;;;;;;;2.00;1.75;;;;;;;21.91;38.07;101438.34;5001985;28;20145;-69
2024/02/05 00:42:44;;;;;;;2.95;1.90;;;;;;;22.00;38.17;101469.06;4998040;28;20082;-69
2024/02/05 00:45:10;;;;;;;3.17;1.90;;;;;;;22.01;38.04;101448.66;4986774;28;20054;-69
2024/02/05 00:47:35;;;;;;;2.38;2.03;;;;;;;21.94;38.23;101448.56;4984585;28;20042;-69
2024/02/05 00:50:01;;;;;;;2.88;1.85;;;;;;;22.00;38.01;101454.97;4988216;28;20532;-69
2024/02/05 00:52:27;;;;;;;2.13;1.48;;;;;;;22.00;38.12;101452.31;4985701;28;20044;-69
2024/02/05 00:54:53;;;;;;;4.47;2.22;;;;;;;22.00;38.13;101462.94;4998574;28;20030;-69
2024/02/05 00:57:19;;;;;;;2.08;1.70;;;;;;;21.99;37.96;101458.63;4985333;28;20482;-69
2024/02/05 00:59:47;;;;;;;3.30;1.90;;;;;;;21.99;38.13;101448.03;4985532;28;20121;-69
2024/02/05 01:02:13;;;;;;;1.60;1.40;;;;;;;21.94;38.13;101455.72;4987390;28;20088;-69
2024/02/05 01:04:39;;;;;;;3.00;1.85;;;;;;;21.98;37.93;101468.41;4985745;28;20049;-69
2024/02/05 01:07:05;;;;;;;2.78;1.85;;;;;;;21.94;38.40;101451.22;4985284;28;20125;-69
2024/02/05 01:09:30;;;;;;;3.40;1.90;;;;;;;21.92;38.31;101455.88;4984664;28;20054;-69
2024/02/05 01:11:56;;;;;;;2.15;1.77;;;;;;;21.92;37.95;101458.53;4996878;28;20055;-69
2024/02/05 01:14:22;;;;;;;4.78;2.00;;;;;;;21.92;38.18;101474.44;4988102;28;20438;-69
2024/02/05 01:16:47;;;;;;;3.72;1.95;;;;;;;21.87;38.15;101457.41;4986270;28;20128;-69
2024/02/05 01:19:13;;;;;;;1.98;1.70;;;;;;;21.75;38.39;101435.81;4985465;28;20618;-69
2024/02/05 01:21:39;;;;;;;3.35;1.48;;;;;;;21.88;38.30;101464.34;4982701;28;20053;-69
2024/02/05 01:24:05;;;;;;;2.13;1.63;;;;;;;21.89;38.28;101466.00;4987574;28;20050;-69
2024/02/05 01:26:30;;;;;;;4.40;1.75;;;;;;;21.83;38.10;101459.59;4979354;28;20124;-69
2024/02/05 01:28:56;;;;;;;2.45;1.58;;;;;;;21.79;38.27;101468.09;4981417;28;20046;-69
2024/02/05 01:31:21;;;;;;;3.90;2.25;;;;;;;21.86;38.15;101472.50;4984922;28;20042;-69
2024/02/05 01:33:47;;;;;;;1.80;1.42;;;;;;;21.86;38.05;101474.31;4983084;28;20030;-69
2024/02/05 01:36:12;;;;;;;2.88;1.55;;;;;;;21.86;38.31;101479.63;4985863;28;20042;-69
2024/02/05 01:38:38;;;;;;;2.33;1.83;;;;;;;21.84;38.32;101473.66;4987455;28;20046;-69
2024/02/05 01:41:04;;;;;;;2.72;1.60;;;;;;;21.84;37.91;101471.03;4981252;28;20745;-69
2024/02/05 01:43:30;;;;;;;2.97;1.67;;;;;;;21.78;38.09;101466.44;4985614;28;20053;-69
2024/02/05 01:45:56;;;;;;;2.85;1.70;;;;;;;21.69;37.92;101452.41;4977607;28;20046;-69
2024/02/05 01:48:25;;;;;;;3.90;1.60;;;;;;;21.77;38.40;101457.66;4982935;28;20128;-68
2024/02/05 01:50:51;;;;;;;2.83;1.60;;;;;;;21.80;38.25;101465.25;4980972;28;20062;-69
2024/02/05 01:53:20;;;;;;;3.47;2.08;;;;;;;21.78;38.22;101454.00;4983925;28;20150;-69
2024/02/05 01:55:48;;;;;;;3.35;2.03;;;;;;;21.77;38.38;101465.63;4984178;28;20120;-69
2024/02/05 01:58:14;;;;;;;2.58;1.67;;;;;;;21.75;38.49;101453.53;4983685;28;20037;-69
2024/02/05 02:00:41;;;;;;;2.20;1.67;;;;;;;21.68;38.07;101438.31;4977847;28;20029;-69
2024/02/05 02:03:07;;;;;;;1.90;1.40;;;;;;;21.75;38.33;101450.88;4984526;28;20061;-69
2024/02/05 02:05:32;;;;;;;3.60;1.88;;;;;;;21.77;38.05;101468.25;4981025;28;20038;-69
2024/02/05 02:07:58;;;;;;;2.47;1.55;;;;;;;21.62;38.02;101438.22;4982428;28;20042;-69
2024/02/05 02:10:24;;;;;;;1.88;1.45;;;;;;;21.75;37.99;101450.88;4980602;28;20474;-69
2024/02/05 02:12:49;;;;;;;3.17;2.00;;;;;;;21.68;38.40;101454.22;4982942;28;20045;-69
2024/02/05 02:15:15;;;;;;;2.38;2.00;;;;;;;21.73;38.20;101461.69;4979827;28;20042;-69
2024/02/05 02:17:45;;;;;;;4.18;1.70;;;;;;;21.71;38.05;101453.03;4987080;28;20049;-69
2024/02/05 02:20:12;;;;;;;2.42;1.60;;;;;;;21.74;38.28;101450.06;4980041;28;20030;-69
2024/02/05 02:23:22;;;;;;;3.05;1.52;;;;;;;21.71;38.14;101447.75;4982665;28;20031;-69
2024/02/05 02:25:50;;;;;;;1.83;1.48;;;;;;;21.64;38.20;101441.50;4962129;28;20127;-68
2024/02/05 02:28:15;;;;;;;3.33;1.33;;;;;;;21.70;37.97;101459.34;4993561;28;20130;-68
2024/02/05 02:30:41;;;;;;;2.70;1.52;;;;;;;21.62;38.39;101433.75;4983377;28;20030;-69
2024/02/05 02:33:18;;;;;;;4.40;1.50;;;;;;;21.64;38.21;101430.91;4981491;28;20042;-69
2024/02/05 02:35:55;;;;;;;3.60;1.67;;;;;;;21.69;38.25;101447.91;4981693;28;20108;-69
2024/02/05 02:38:29;;;;;;;3.17;1.50;;;;;;;21.64;38.47;101447.63;4984461;28;20054;-69
2024/02/05 02:40:59;;;;;;;3.50;1.92;;;;;;;21.62;38.52;101432.91;4985755;28;20042;-69
2024/02/05 02:43:27;;;;;;;3.07;1.70;;;;;;;21.64;38.38;101439.69;4984723;28;20034;-69
2024/02/05 02:45:54;;;;;;;2.80;1.52;;;;;;;21.66;38.01;101439.50;4997735;28;20487;-69
2024/02/05 02:48:20;;;;;;;4.18;2.00;;;;;;;21.50;38.09;101413.94;4985559;28;20120;-69
2024/02/05 02:50:45;;;;;;;2.85;1.90;;;;;;;21.59;38.01;101423.50;4999354;28;20466;-69
2024/02/05 02:53:11;;;;;;;2.70;1.80;;;;;;;21.61;38.21;101433.91;4985942;28;20050;-69
2024/02/05 02:55:37;;;;;;;2.38;1.50;;;;;;;21.58;38.03;101416.56;4983607;28;20042;-69
2024/02/05 02:58:02;;;;;;;2.85;1.50;;;;;;;21.50;38.41;101413.13;4984237;28;20049;-69
2024/02/05 03:00:28;;;;;;;4.25;1.70;;;;;;;21.54;37.99;101427.66;4985147;28;20041;-69
2024/02/05 03:02:54;;;;;;;2.55;1.50;;;;;;;21.56;38.25;101431.81;4998813;28;20057;-69
2024/02/05 03:05:20;;;;;;;2.42;1.67;;;;;;;21.60;38.20;101434.94;4999926;28;20047;-69
2024/02/05 03:07:46;;;;;;;3.50;1.88;;;;;;;21.58;37.99;101436.94;5003988;28;20526;-69
2024/02/05 03:10:12;;;;;;;3.17;1.30;;;;;;;21.58;38.39;101434.28;4989817;28;20053;-69
2024/02/05 03:12:37;;;;;;;2.65;1.50;;;;;;;21.57;38.23;101459.97;4990494;28;20739;-69
2024/02/05 03:15:03;;;;;;;3.17;1.73;;;;;;;21.50;38.27;101445.75;5005854;28;20057;-69
2024/02/05 03:17:29;;;;;;;2.92;1.55;;;;;;;21.56;38.04;101445.06;5004004;28;20045;-69
2024/02/05 03:19:54;;;;;;;3.88;1.85;;;;;;;21.52;38.11;101427.84;4985951;28;20038;-69
2024/02/05 03:22:20;;;;;;;3.58;1.48;;;;;;;21.54;38.28;101447.03;4987197;28;20033;-69
2024/02/05 03:24:46;;;;;;;2.13;1.27;;;;;;;21.53;38.33;101448.03;4987549;28;20046;-69
2024/02/05 03:27:11;;;;;;;1.20;1.10;;;;;;;21.45;38.37;101426.91;4986814;28;20040;-69
2024/02/05 03:29:37;;;;;;;3.95;1.48;;;;;;;21.53;37.99;101424.19;5003185;28;20046;-69
2024/02/05 03:32:03;;;;;;;3.67;1.98;;;;;;;21.43;38.34;101426.25;4991103;28;20069;-69
2024/02/05 03:34:29;;;;;;;2.35;1.67;;;;;;;21.41;38.23;101434.38;4986001;28;20030;-69
2024/02/05 03:36:55;;;;;;;2.97;1.50;;;;;;;21.44;38.19;101437.69;4993603;28;20370;-69
2024/02/05 03:39:20;;;;;;;3.17;1.40;;;;;;;21.35;38.31;101429.75;4991742;28;20042;-69
2024/02/05 03:41:46;;;;;;;2.30;1.45;;;;;;;21.43;38.45;101450.09;4991396;28;20057;-69
2024/02/05 03:44:11;;;;;;;3.33;1.50;;;;;;;21.47;38.12;101461.16;5002619;28;20034;-69
2024/02/05 03:46:37;;;;;;;2.88;2.00;;;;;;;21.46;38.12;101455.03;4985155;28;20042;-69
2024/02/05 03:49:02;;;;;;;4.15;1.73;;;;;;;21.43;38.02;101468.66;4986285;28;20053;-69
2024/02/05 03:51:28;;;;;;;3.03;1.80;;;;;;;21.47;38.30;101456.69;4988101;28;20058;-69
2024/02/05 03:53:53;;;;;;;4.10;1.77;;;;;;;21.47;38.34;101456.69;4983978;28;20034;-69
2024/02/05 03:56:19;;;;;;;1.70;1.23;;;;;;;21.37;38.18;101453.47;4988145;28;20038;-69
2024/02/05 03:58:45;;;;;;;2.42;1.52;;;;;;;21.44;38.23;101456.22;4987060;28;20035;-69
2024/02/05 04:01:10;;;;;;;3.05;1.50;;;;;;;21.42;38.23;101449.28;4986694;28;20042;-68
2024/02/05 04:03:36;;;;;;;3.03;1.42;;;;;;;21.38;38.05;101442.69;4985234;28;20042;-68
2024/02/05 04:06:02;;;;;;;2.50;1.60;;;;;;;21.42;38.23;101459.06;4981149;28;20101;-69
2024/02/05 04:08:27;;;;;;;2.05;1.30;;;;;;;21.41;38.37;101447.63;4984594;28;20052;-69
2024/02/05 04:10:54;;;;;;;2.13;1.20;;;;;;;21.34;38.33;101438.72;4984680;28;20050;-69
2024/02/05 04:13:20;;;;;;;1.80;1.35;;;;;;;21.41;38.26;101446.81;4988218;28;20228;-69
2024/02/05 04:15:45;;;;;;;3.50;1.60;;;;;;;21.36;38.19;101452.63;4986844;28;20082;-68
2024/02/05 04:18:11;;;;;;;2.42;1.65;;;;;;;21.37;38.12;101453.47;4984393;28;20123;-68
2024/02/05 04:20:36;;;;;;;2.85;1.45;;;;;;;21.37;37.95;101434.91;4988066;28;20035;-68
2024/02/05 04:23:02;;;;;;;2.35;1.65;;;;;;;21.36;38.55;101446.47;5000984;28;20051;-68
2024/02/05 04:25:28;;;;;;;2.42;1.40;;;;;;;21.39;38.31;101451.47;4986666;28;20039;-69
2024/02/05 04:27:54;;;;;;;5.72;2.08;;;;;;;21.36;38.39;101452.63;4987951;28;20046;-69
2024/02/05 04:30:28;;;;;;;2.40;1.30;;;;;;;21.26;38.22;101445.91;4981419;28;20050;-69
2024/02/05 04:32:58;;;;;;;3.53;1.55;;;;;;;21.33;38.48;101458.25;4985162;28;20082;-69
2024/02/05 04:35:23;;;;;;;3.25;1.60;;;;;;;21.32;38.20;101451.31;5000308;28;20163;-69
2024/02/05 04:37:49;;;;;;;2.08;1.52;;;;;;;21.30;38.60;101441.91;5001624;28;20607;-69
2024/02/05 04:40:14;;;;;;;3.40;1.58;;;;;;;21.26;38.18;101449.38;5003067;28;20042;-69
2024/02/05 04:42:40;;;;;;;2.47;1.45;;;;;;;21.33;38.32;101445.00;4986097;28;20042;-69
2024/02/05 04:45:06;;;;;;;3.80;2.00;;;;;;;21.34;38.07;101461.72;5002540;28;20047;-69
2024/02/05 04:47:32;;;;;;;2.03;1.20;;;;;;;21.33;38.21;101452.13;4985147;28;20081;-69
2024/02/05 04:49:57;;;;;;;2.67;1.70;;;;;;;21.25;38.27;101441.59;4984555;28;20034;-69
2024/02/05 04:52:23;;;;;;;2.10;1.35;;;;;;;21.30;38.21;101448.03;5001479;28;20042;-69
2024/02/05 04:54:48;;;;;;;3.92;1.55;;;;;;;21.27;38.38;101458.16;4998785;28;20092;-69
2024/02/05 04:57:14;;;;;;;3.10;1.20;;;;;;;21.32;38.04;101467.22;4983155;28;20093;-69
2024/02/05 04:59:39;;;;;;;2.22;1.30;;;;;;;21.27;38.16;101468.75;4999427;28;20038;-69
2024/02/05 05:02:05;;;;;;;2.50;1.48;;;;;;;21.30;38.05;101479.81;4997549;28;20038;-69
2024/02/05 05:04:30;;;;;;;4.35;1.52;;;;;;;21.28;38.32;101471.22;4982472;28;20426;-69
2024/02/05 05:06:56;;;;;;;3.15;1.60;;;;;;;21.26;38.25;101454.66;4981914;28;20043;-69
2024/02/05 05:09:22;;;;;;;3.35;1.65;;;;;;;21.25;38.27;101465.44;4984025;28;20380;-69
2024/02/05 05:11:48;;;;;;;2.75;1.50;;;;;;;21.28;38.37;101465.09;4984748;28;20041;-69
2024/02/05 05:14:14;;;;;;;2.70;1.65;;;;;;;21.27;38.23;101451.03;4986063;28;20038;-69
2024/02/05 05:16:39;;;;;;;4.18;1.85;;;;;;;21.22;38.25;101455.16;5000316;28;20083;-69
2024/02/05 05:19:05;;;;;;;2.35;1.40;;;;;;;21.26;38.19;101449.38;4985778;28;20573;-69
2024/02/05 05:21:30;;;;;;;2.10;1.35;;;;;;;21.26;38.01;101467.09;4986834;28;20057;-69
2024/02/05 05:23:56;;;;;;;2.90;1.65;;;;;;;21.22;38.41;101444.56;4984759;28;20045;-69
2024/02/05 05:26:23;;;;;;;1.52;1.38;;;;;;;21.11;38.47;101412.16;4986625;28;20038;-68
2024/02/05 05:28:50;;;;;;;2.58;1.30;;;;;;;21.23;38.38;101449.69;4980560;28;20109;-68
2024/02/05 05:31:16;;;;;;;1.77;1.45;;;;;;;21.20;38.19;101458.00;4984555;28;20061;-68
2024/02/05 05:33:45;;;;;;;4.47;1.50;;;;;;;21.12;38.37;101426.25;4986757;28;20034;-68
2024/02/05 05:36:11;;;;;;;4.55;1.88;;;;;;;21.23;38.17;101455.00;4984877;28;20128;-68
2024/02/05 05:38:36;;;;;;;2.75;1.60;;;;;;;21.21;38.16;101449.03;4986505;28;20057;-68
2024/02/05 05:41:03;;;;;;;3.78;1.80;;;;;;;21.21;38.13;101466.75;4996044;28;20034;-68
2024/02/05 05:43:29;;;;;;;2.40;1.50;;;;;;;21.19;38.15;101458.16;4988653;28;20081;-68
2024/02/05 05:45:55;;;;;;;3.95;1.83;;;;;;;21.22;38.33;101444.56;4988158;28;20624;-68
2024/02/05 05:48:21;;;;;;;4.50;1.98;;;;;;;21.18;38.10;101444.06;4984312;28;20600;-68
2024/02/05 05:50:47;;;;;;;2.20;1.23;;;;;;;21.17;38.27;101455.66;5003865;28;20050;-69
2024/02/05 05:53:13;;;;;;;3.40;1.85;;;;;;;21.18;38.45;101448.53;4987106;28;20041;-69
2024/02/05 05:55:38;;;;;;;2.40;1.70;;;;;;;21.21;38.18;101453.53;4980526;28;20780;-69
2024/02/05 05:58:04;;;;;;;2.72;1.75;;;;;;;21.16;38.24;101447.91;4985274;28;20116;-69
2024/02/05 06:00:29;;;;;;;2.47;1.40;;;;;;;21.18;38.37;101456.50;4997424;28;20033;-69
2024/02/05 06:02:56;;;;;;;3.33;2.22;;;;;;;21.16;38.32;101461.97;4985499;28;20052;-69
2024/02/05 06:05:22;;;;;;;3.58;1.90;;;;;;;21.15;38.54;101456.84;4983062;28;20126;-69
2024/02/05 06:07:48;;;;;;;4.43;1.70;;;;;;;21.16;38.47;101453.19;5001793;28;20068;-69
2024/02/05 06:10:13;;;;;;;2.40;1.38;;;;;;;21.10;38.38;101438.81;4984348;28;21164;-69
2024/02/05 06:12:40;;;;;;;2.33;1.30;;;;;;;21.14;38.37;101445.44;5001224;28;20042;-69
2024/02/05 06:15:07;;;;;;;2.75;1.50;;;;;;;21.14;38.25;101445.44;4984020;28;20045;-69
2024/02/05 06:17:33;;;;;;;2.00;1.50;;;;;;;21.04;38.43;101429.75;4986645;28;20038;-69
2024/02/05 06:19:58;;;;;;;4.05;1.58;;;;;;;21.19;38.13;101450.22;4996029;28;20155;-69
2024/02/05 06:22:24;;;;;;;3.45;1.50;;;;;;;21.17;38.27;101460.97;5002535;28;20041;-69
2024/02/05 06:24:49;;;;;;;1.70;1.30;;;;;;;21.14;38.32;101458.66;4982660;28;20049;-69
2024/02/05 06:27:15;;;;;;;2.10;1.48;;;;;;;21.16;38.27;101455.84;4981424;28;20046;-69
2024/02/05 06:29:40;;;;;;;4.00;1.60;;;;;;;21.13;38.21;101449.06;4982242;28;20046;-69
2024/02/05 06:32:06;;;;;;;2.45;1.50;;;;;;;21.17;38.23;101462.78;4991735;28;20573;-69
2024/02/05 06:34:33;;;;;;;2.88;1.88;;;;;;;21.15;38.59;101462.97;4985805;28;20045;-69
2024/02/05 06:36:59;;;;;;;2.25;1.35;;;;;;;21.17;38.24;101468.91;4994449;28;20042;-69
2024/02/05 06:39:24;;;;;;;3.13;1.55;;;;;;;21.08;38.19;101454.91;4991951;28;20115;-69
2024/02/05 06:41:51;;;;;;;3.00;1.70;;;;;;;21.16;38.43;101464.59;4999951;28;20062;-69
2024/02/05 06:44:17;;;;;;;3.90;1.65;;;;;;;21.10;38.35;101460.00;4987836;28;20253;-69
2024/02/05 06:46:43;;;;;;;3.85;1.50;;;;;;;21.13;38.34;101464.97;4987845;28;20038;-69
2024/02/05 06:49:08;;;;;;;2.83;1.33;;;;;;;21.11;38.23;101473.09;4985958;28;20053;-69
2024/02/05 06:51:34;;;;;;;2.50;1.13;;;;;;;21.12;38.56;101485.31;4988564;28;20080;-69
2024/02/05 06:53:59;;;;;;;3.15;1.40;;;;;;;21.17;38.28;101492.75;4987078;28;20046;-69
2024/02/05 06:56:25;;;;;;;3.47;1.52;;;;;;;21.13;38.50;101486.16;4987263;28;20069;-69
2024/02/05 06:58:50;;;;;;;4.45;1.52;;;;;;;21.09;38.38;101469.78;4986342;28;20050;-69
2024/02/05 07:01:16;;;;;;;2.60;1.52;;;;;;;21.09;38.21;101482.19;4985483;28;20042;-69
2024/02/05 07:03:41;;;;;;;2.97;1.35;;;;;;;21.13;38.24;101483.50;4984188;28;20038;-69
2024/02/05 07:06:07;;;;;;;2.20;1.45;;;;;;;21.07;38.18;101479.72;4982193;28;20486;-69
2024/02/05 07:08:33;;;;;;;4.28;1.60;;;;;;;21.12;38.49;101479.19;4983734;28;20042;-69
2024/02/05 07:10:58;;;;;;;2.75;1.27;;;;;;;21.13;38.39;101486.97;5003390;28;20054;-69
2024/02/05 07:13:24;;;;;;;2.75;1.60;;;;;;;21.12;38.24;101481.84;4982136;28;20514;-69
2024/02/05 07:15:49;;;;;;;1.35;1.17;;;;;;;21.09;38.21;101483.03;4985800;28;20046;-69
2024/02/05 07:18:15;;;;;;;2.97;1.58;;;;;;;21.12;38.22;101487.16;4985234;28;20041;-69
2024/02/05 07:20:41;;;;;;;2.50;1.60;;;;;;;21.13;38.54;101476.38;4985373;28;20125;-69
2024/02/05 07:23:07;;;;;;;3.38;1.50;;;;;;;21.13;38.50;101475.56;4983729;28;20053;-69
2024/02/05 07:25:38;;;;;;;3.40;1.70;;;;;;;21.08;38.24;101478.72;4982122;28;20042;-69
2024/02/05 07:28:05;;;;;;;2.72;1.40;;;;;;;21.06;38.52;101472.78;5001301;28;20045;-69
2024/02/05 07:30:32;;;;;;;2.65;1.48;;;;;;;21.08;38.26;101481.38;4983052;28;20058;-69
2024/02/05 07:32:57;;;;;;;3.63;1.40;;;;;;;21.09;38.51;101480.38;4987205;28;20081;-69
2024/02/05 07:35:23;;;;;;;2.65;1.52;;;;;;;21.12;38.52;101482.69;4985670;28;20045;-69
2024/02/05 07:37:49;;;;;;;3.38;1.65;;;;;;;21.24;38.04;101464.63;4999866;28;20058;-69
2024/02/05 07:40:15;;;;;;;7.32;2.45;;;;;;;21.64;38.12;101478.63;4991522;28;20050;-77
2024/02/05 07:42:40;;;;;;;7.53;2.20;;;;;;;21.75;38.33;101493.31;5002864;28;20034;-72
2024/02/05 07:45:06;;;;;;;7.43;2.45;;;;;;;21.79;38.29;101476.03;4977547;28;20061;-66
2024/02/05 07:47:32;;;;;;;8.15;2.45;;;;;;;21.71;38.58;101485.69;4991738;28;20048;-66
2024/02/05 07:49:57;;;;;;;8.07;2.70;;;;;;;21.67;38.59;101470.31;4998843;28;20043;-66
2024/02/05 07:52:23;;;;;;;7.85;2.60;;;;;;;21.65;38.62;101481.09;4988801;28;20351;-66
2024/02/05 07:54:48;;;;;;;4.57;2.20;;;;;;;21.56;38.40;101473.38;4986602;28;20027;-66
2024/02/05 07:57:14;;;;;;;8.23;2.75;;;;;;;21.54;38.50;101484.13;4975697;28;20042;-66
2024/02/05 07:59:39;;;;;;;9.05;3.05;;;;;;;21.48;38.54;101492.78;4975843;28;20043;-66
2024/02/05 08:02:06;;;;;;;8.02;2.42;;;;;;;21.44;38.78;101499.44;4995219;28;20041;-66
2024/02/05 08:04:31;;;;;;;8.65;2.75;;;;;;;21.38;38.68;101510.75;4992134;28;20062;-66
2024/02/05 08:07:01;;;;;;;6.95;2.47;;;;;;;21.43;38.73;101495.16;4997921;28;20037;-66
2024/02/05 08:09:27;;;;;;;8.05;2.75;;;;;;;21.33;38.94;101492.69;4982986;28;20055;-66
2024/02/05 08:11:52;;;;;;;10.15;2.58;;;;;;;21.34;38.93;101507.59;4985803;28;20038;-66
2024/02/05 08:14:20;;;;;;;8.98;2.72;;;;;;;21.29;38.87;101502.00;4993397;28;20478;-66
2024/02/05 08:16:45;;;;;;;5.88;2.60;;;;;;;21.26;38.76;101504.19;4984082;28;20062;-66
2024/02/05 08:19:11;;;;;;;10.40;2.90;;;;;;;21.35;38.92;101513.72;4987533;28;20099;-66
2024/02/05 08:21:36;;;;;;;9.55;3.28;;;;;;;21.30;38.94;101514.25;4981502;28;20046;-66
2024/02/05 08:24:02;;;;;;;7.53;2.90;;;;;;;21.31;38.93;101523.03;4987638;28;20372;-66
2024/02/05 08:26:28;;;;;;;9.65;2.92;;;;;;;21.27;38.71;101516.41;4988409;28;20144;-66
2024/02/05 08:28:53;;;;;;;10.52;3.25;;;;;;;21.31;38.73;101537.09;4982150;28;20439;-66
2024/02/05 08:31:22;;;;;;;7.45;2.83;;;;;;;21.30;38.84;101524.84;4990914;28;20061;-65
2024/02/05 08:33:48;;;;;;;9.80;3.10;;;;;;;21.24;38.62;101514.94;4985512;28;20104;-66
2024/02/05 08:36:14;;;;;;;17.95;3.58;;;;;;;21.22;38.96;101516.91;4987513;28;20855;-68
2024/02/05 08:38:41;;;;;;;7.40;2.75;;;;;;;21.13;39.21;101509.97;4985477;28;20046;-69
2024/02/05 08:41:08;;;;;;;7.68;3.05;;;;;;;21.15;39.57;101497.38;4997062;28;20058;-65
2024/02/05 08:43:34;;;;;;;8.90;2.95;;;;;;;21.37;39.22;101501.97;4931102;28;20038;-65
2024/02/05 08:46:00;;;;;;;7.22;3.03;;;;;;;21.40;38.89;101509.56;4982269;28;20073;-63
2024/02/05 08:48:25;;;;;;;10.60;3.20;;;;;;;21.48;38.98;101508.69;4989544;28;20049;-68
2024/02/05 08:50:51;;;;;;;6.28;2.65;;;;;;;21.42;39.24;101504.91;4984116;28;20035;-71
2024/02/05 08:53:16;;;;;;;7.82;3.20;;;;;;;21.48;39.09;101506.03;4984579;28;20057;-66
2024/02/05 08:55:42;;;;;;;8.75;2.80;;;;;;;21.57;38.91;101505.00;4987789;28;20049;-63
2024/02/05 08:58:08;;;;;;;7.13;2.75;;;;;;;21.74;38.64;101505.72;4934887;28;20034;-69
2024/02/05 09:00:33;;;;;;;98.88;22.25;;;;;;;21.62;38.88;101507.13;4983730;28;20042;-72
2024/02/05 09:02:59;;;;;;;39.22;8.68;;;;;;;21.66;38.68;101490.69;4938201;28;20037;-66
2024/02/05 09:05:25;;;;;;;43.25;10.38;;;;;;;21.79;38.60;101507.84;4983851;28;20061;-65
2024/02/05 09:07:51;;;;;;;44.95;10.23;;;;;;;21.74;38.91;101491.66;4967923;28;20398;-66
2024/02/05 09:10:19;;;;;;;26.50;7.70;;;;;;;21.86;38.96;101511.44;4981213;28;20121;-65
2024/02/05 09:12:44;;;;;;;24.17;5.80;;;;;;;21.68;39.06;101495.81;4946933;28;20046;-67
2024/02/05 09:15:10;;;;;;;25.77;6.53;;;;;;;21.69;39.07;101495.63;4984668;28;20470;-66
2024/02/05 09:17:36;;;;;;;21.35;6.43;;;;;;;21.69;38.97;101492.97;4932937;28;20046;-70
2024/02/05 09:20:02;;;;;;;26.67;6.82;;;;;;;21.86;38.71;101512.25;4976922;28;20049;-63
2024/02/05 09:22:28;;;;;;;20.08;5.22;;;;;;;21.97;38.69;101501.25;4938067;28;20073;-63
2024/02/05 09:24:53;;;;;;;21.75;5.90;;;;;;;22.06;38.60;101517.94;4971268;28;20169;-63
2024/02/05 09:27:19;;;;;;;17.05;5.65;;;;;;;22.09;38.65;101520.25;4979832;28;20046;-60
2024/02/05 09:29:45;;;;;;;20.35;5.80;;;;;;;22.11;38.58;101512.94;4927635;28;20086;-63
2024/02/05 09:32:10;;;;;;;20.33;5.38;;;;;;;22.14;38.71;101503.81;4987473;28;20537;-62
2024/02/05 09:34:36;;;;;;;13.02;4.28;;;;;;;22.17;38.42;101506.91;4936588;28;20034;-62
2024/02/05 09:37:03;;;;;;;21.75;5.13;;;;;;;22.14;38.41;101501.97;4981562;28;20042;-60
2024/02/05 09:39:29;;;;;;;13.23;4.47;;;;;;;22.15;38.25;101508.94;4938339;28;20053;-60
2024/02/05 09:42:01;;;;;;;16.83;5.95;;;;;;;22.21;38.52;101510.03;4981689;28;20216;-62
2024/02/05 09:44:35;;;;;;;19.08;5.07;;;;;;;22.30;38.36;101520.41;4939536;28;20038;-60
2024/02/05 09:47:01;;;;;;;14.18;4.30;;;;;;;22.30;38.21;101516.94;4981170;28;20474;-61
2024/02/05 09:49:27;;;;;;;18.48;4.82;;;;;;;22.34;38.09;101504.94;4971650;28;20088;-62
2024/02/05 09:51:53;;;;;;;15.27;4.22;;;;;;;22.35;38.25;101511.09;4984062;28;20362;-62
2024/02/05 09:54:19;;;;;;;11.43;3.65;;;;;;;22.37;37.93;101528.47;4935482;28;20939;-60
2024/02/05 09:56:45;;;;;;;18.40;3.97;;;;;;;22.34;38.27;101514.75;4979458;28;20159;-62
2024/02/05 09:59:11;;;;;;;11.27;3.28;;;;;;;22.14;37.71;101519.72;4933832;28;20046;-64
2024/02/05 10:01:38;;;;;;;13.95;4.00;;;;;;;21.85;38.07;101520.38;4982988;28;20100;-65
2024/02/05 10:04:07;;;;;;;10.38;3.47;;;;;;;21.78;37.83;101522.09;4962720;28;20473;-66
2024/02/05 10:06:37;;;;;;;7.00;3.05;;;;;;;21.97;38.00;101525.13;4986314;28;20126;-67
2024/02/05 10:09:06;;;;;;;7.88;3.83;;;;;;;22.05;37.78;101531.38;4976140;28;20034;-67
2024/02/05 10:11:34;;;;;;;9.75;3.38;;;;;;;22.19;37.95;101528.78;4966687;28;20042;-67
2024/02/05 10:14:00;;;;;;;10.73;3.28;;;;;;;22.28;37.95;101522.44;4961088;28;20066;-67
2024/02/05 10:16:26;;;;;;;9.57;3.42;;;;;;;22.22;37.98;101536.38;4975077;28;20480;-70
2024/02/05 10:18:52;;;;;;;10.05;3.85;;;;;;;22.16;38.28;101536.28;4927755;28;20440;-69
2024/02/05 10:21:18;;;;;;;9.18;3.40;;;;;;;22.20;38.01;101537.56;4980235;28;20053;-68
2024/02/05 10:23:53;;;;;;;7.55;3.13;;;;;;;22.17;38.41;101538.75;4934402;28;20031;-69
2024/02/05 10:26:19;;;;;;;9.30;3.88;;;;;;;22.19;38.30;101536.75;4993707;28;20042;-68
2024/02/05 10:28:44;;;;;;;7.25;2.60;;;;;;;22.19;38.53;101543.88;4926777;28;20160;-67
2024/02/05 10:31:10;;;;;;;7.32;2.88;;;;;;;22.11;38.37;101517.44;4979112;28;20470;-65
2024/02/05 10:33:39;;;;;;;8.65;3.03;;;;;;;22.31;38.31;101542.47;4979178;28;20104;-64
2024/02/05 10:36:05;;;;;;;8.35;3.90;;;;;;;22.38;37.99;101535.41;4959223;28;20112;-67
2024/02/05 10:38:36;;;;;;;8.25;2.95;;;;;;;22.38;38.27;101535.41;4967018;28;20225;-64
2024/02/05 10:41:04;;;;;;;6.25;2.70;;;;;;;22.41;38.22;101521.78;4943813;28;20045;-64
2024/02/05 10:43:30;;;;;;;7.18;2.83;;;;;;;22.43;38.00;101521.59;4982457;28;20031;-65
2024/02/05 10:45:59;;;;;;;7.97;2.53;;;;;;;22.44;38.13;101518.81;4977506;28;20146;-63
2024/02/05 10:48:25;;;;;;;8.50;3.05;;;;;;;22.29;37.79;101521.41;4950020;28;20046;-66
2024/02/05 10:50:51;;;;;;;12.57;4.18;;;;;;;21.97;37.18;101521.63;4969393;28;20371;-66
2024/02/05 10:53:17;;;;;;;12.52;3.45;;;;;;;21.49;37.08;101520.94;4955209;28;20049;-66
2024/02/05 10:55:46;;;;;;;10.00;3.55;;;;;;;21.64;38.40;101521.84;4998275;28;20715;-62
2024/02/05 10:58:15;;;;;;;9.43;3.47;;;;;;;21.96;37.83;101534.06;4985161;28;20049;-63
2024/02/05 11:00:41;;;;;;;10.30;3.40;;;;;;;22.10;37.35;101526.41;4987836;28;20034;-63
2024/02/05 11:03:12;;;;;;;9.57;2.95;;;;;;;22.20;37.80;101525.13;4938735;28;20139;-65
2024/02/05 11:05:40;;;;;;;10.65;3.22;;;;;;;22.24;37.98;101534.38;4984385;28;20557;-64
2024/02/05 11:08:12;;;;;;;13.77;3.65;;;;;;;22.29;37.81;101529.38;4935122;28;20046;-64
2024/02/05 11:10:46;;;;;;;8.45;2.92;;;;;;;22.27;37.63;101510.16;4971974;28;20046;-64
2024/02/05 11:13:29;;;;;;;8.25;3.05;;;;;;;22.11;37.74;101502.34;4946431;28;20093;-63
2024/02/05 11:15:58;;;;;;;5.35;2.80;;;;;;;22.16;38.03;101520.38;4983066;28;20069;-62
2024/02/05 11:18:55;;;;;;;9.27;3.55;;;;;;;22.33;37.85;101537.78;4951424;28;20080;-61
2024/02/05 11:21:35;;;;;;;10.63;3.78;;;;;;;22.35;38.08;101529.66;4964770;28;20061;-60